Time;durP1;ratioP1;P1;durP2;ratioP2;P2;SDS_P1;SDS_P2;PMS_P1;PMS_P2;Temp;Humidity;BMP_temperature;BMP_pressure;BME280_temperature;BME280_humidity;BME280_pressure;Samples;Min_cycle;Max_cycle;Signal;HPM_P1;HPM_P2
2023/09/11 00:01:18;;;;;;;9.43;8.67;;;20.00;99.90;;;;;;5073310;28;20236;-53
2023/09/11 00:03:45;;;;;;;9.77;8.97;;;19.90;99.90;;;;;;5076206;28;20197;-53
2023/09/11 00:06:12;;;;;;;9.40;8.70;;;19.90;99.90;;;;;;5067749;28;20254;-53
2023/09/11 00:08:39;;;;;;;9.07;8.57;;;19.80;99.90;;;;;;5073260;28;20617;-53
2023/09/11 00:11:06;;;;;;;10.27;9.57;;;19.80;99.90;;;;;;5091350;28;20204;-53
2023/09/11 00:13:33;;;;;;;9.50;8.63;;;19.80;99.90;;;;;;5091123;28;20277;-53
2023/09/11 00:16:01;;;;;;;9.30;8.67;;;19.80;99.90;;;;;;5082042;28;20274;-53
2023/09/11 00:18:28;;;;;;;10.37;9.67;;;19.70;99.90;;;;;;5071623;28;20266;-53
2023/09/11 00:20:55;;;;;;;9.77;9.07;;;19.70;99.90;;;;;;5079284;28;20201;-53
2023/09/11 00:23:22;;;;;;;8.80;8.17;;;19.70;99.90;;;;;;5079490;28;20213;-53
2023/09/11 00:25:49;;;;;;;9.80;9.10;;;19.60;99.90;;;;;;5080586;28;20315;-53
2023/09/11 00:28:16;;;;;;;9.63;8.93;;;19.60;99.90;;;;;;5069459;28;20258;-53
2023/09/11 00:30:43;;;;;;;10.80;10.00;;;19.60;99.90;;;;;;5069291;28;20201;-53
2023/09/11 00:33:12;;;;;;;12.17;11.13;;;19.70;99.90;;;;;;5075128;28;20225;-52
2023/09/11 00:35:39;;;;;;;10.67;9.80;;;19.70;99.90;;;;;;5076219;28;20254;-53
2023/09/11 00:38:06;;;;;;;11.60;10.63;;;19.70;99.90;;;;;;5069218;28;20201;-53
2023/09/11 00:40:34;;;;;;;9.13;8.60;;;19.80;99.90;;;;;;5074160;28;20267;-53
2023/09/11 00:43:01;;;;;;;10.80;10.00;;;19.70;99.90;;;;;;5093587;22;20278;-56
2023/09/11 00:45:28;;;;;;;10.73;9.93;;;19.70;99.90;;;;;;5065552;28;20259;-56
2023/09/11 00:47:55;;;;;;;11.20;10.07;;;19.70;99.90;;;;;;5064013;28;20262;-56
2023/09/11 00:50:24;;;;;;;11.40;10.57;;;19.70;99.90;;;;;;5066069;28;20262;-58
2023/09/11 00:52:51;;;;;;;11.50;10.37;;;19.70;99.90;;;;;;5061295;28;20217;-58
2023/09/11 00:55:20;;;;;;;10.77;9.87;;;19.70;99.90;;;;;;5066256;28;20722;-58
2023/09/11 00:57:47;;;;;;;11.10;10.00;;;19.70;99.90;;;;;;5068156;28;20266;-58
2023/09/11 01:00:15;;;;;;;10.77;9.87;;;19.60;99.90;;;;;;5067424;28;20209;-58
2023/09/11 01:02:42;;;;;;;10.37;9.70;;;19.60;99.90;;;;;;5068773;28;20634;-58
2023/09/11 01:05:09;;;;;;;11.10;10.00;;;19.50;99.90;;;;;;5067618;28;20653;-58
2023/09/11 01:07:38;;;;;;;11.40;10.50;;;19.50;99.90;;;;;;5068854;28;20746;-58
2023/09/11 01:10:06;;;;;;;10.23;9.53;;;19.60;99.90;;;;;;5064719;28;20194;-58
2023/09/11 01:12:36;;;;;;;11.53;10.60;;;19.60;99.90;;;;;;5068221;28;20716;-58
2023/09/11 01:15:04;;;;;;;10.37;9.57;;;19.60;99.90;;;;;;5066713;28;20205;-58
2023/09/11 01:17:37;;;;;;;12.77;11.67;;;19.70;99.90;;;;;;5067593;28;20645;-59
2023/09/11 01:20:25;;;;;;;10.90;10.10;;;19.60;99.90;;;;;;5065463;28;20201;-58
2023/09/11 01:23:26;;;;;;;10.10;9.40;;;19.50;99.90;;;;;;5063719;28;20275;-58
2023/09/11 01:26:06;;;;;;;9.63;8.87;;;19.40;99.90;;;;;;5041496;28;20246;-58
2023/09/11 01:29:07;;;;;;;10.77;9.80;;;19.30;99.90;;;;;;5070016;28;20278;-58
2023/09/11 01:31:36;;;;;;;10.70;9.90;;;19.30;99.90;;;;;;5067475;28;20232;-59
2023/09/11 01:34:04;;;;;;;10.47;9.70;;;19.20;99.90;;;;;;5060954;28;20282;-58
2023/09/11 01:36:31;;;;;;;11.17;10.20;;;19.20;99.90;;;;;;5067019;28;20269;-58
2023/09/11 01:38:58;;;;;;;10.50;9.70;;;19.10;99.90;;;;;;5070819;28;20263;-58
2023/09/11 01:41:28;;;;;;;11.50;10.60;;;19.10;99.90;;;;;;5073331;28;20263;-58
2023/09/11 01:44:01;;;;;;;10.63;9.83;;;19.10;99.90;;;;;;5068998;28;20225;-58
2023/09/11 01:46:29;;;;;;;9.67;9.07;;;19.00;99.90;;;;;;5071296;28;20661;-58
2023/09/11 01:48:59;;;;;;;12.10;11.03;;;19.00;99.90;;;;;;5072150;28;20193;-59
2023/09/11 01:51:27;;;;;;;11.33;10.53;;;19.00;99.90;;;;;;5071838;28;20246;-58
2023/09/11 01:53:54;;;;;;;9.93;9.23;;;19.00;99.90;;;;;;5071569;28;20228;-58
2023/09/11 01:56:22;;;;;;;11.53;10.63;;;19.00;99.90;;;;;;5070192;28;20624;-58
2023/09/11 01:58:49;;;;;;;11.33;10.47;;;19.00;99.90;;;;;;5073881;28;20193;-58
2023/09/11 02:01:14;;;;;;;10.07;9.20;;;18.90;99.90;;;;;;5073010;28;20205;-58
2023/09/11 02:03:43;;;;;;;10.47;9.47;;;18.90;99.90;;;;;;5071228;28;20765;-58
2023/09/11 02:06:10;;;;;;;10.40;9.60;;;18.90;99.90;;;;;;5071336;28;20204;-58
2023/09/11 02:08:37;;;;;;;10.67;9.80;;;18.90;99.90;;;;;;5071398;28;20197;-58
2023/09/11 02:11:07;;;;;;;11.33;10.40;;;18.90;99.90;;;;;;5072555;28;20603;-58
2023/09/11 02:13:33;;;;;;;11.60;10.53;;;18.90;99.90;;;;;;5071448;28;20233;-58
2023/09/11 02:16:00;;;;;;;10.77;9.80;;;18.90;99.90;;;;;;5071752;28;20205;-58
2023/09/11 02:18:27;;;;;;;11.03;10.10;;;18.80;99.90;;;;;;5072229;28;20209;-58
2023/09/11 02:20:56;;;;;;;12.37;10.83;;;18.80;99.90;;;;;;5066518;28;20201;-58
2023/09/11 02:23:23;;;;;;;10.30;9.50;;;18.80;99.90;;;;;;5066855;28;20221;-58
2023/09/11 02:25:51;;;;;;;10.27;9.43;;;18.80;99.90;;;;;;5070003;28;20240;-59
2023/09/11 02:28:17;;;;;;;11.90;11.00;;;18.80;99.90;;;;;;5071503;28;20290;-58
2023/09/11 02:30:44;;;;;;;12.37;11.37;;;18.80;99.90;;;;;;5072379;28;20193;-58
2023/09/11 02:33:11;;;;;;;11.73;10.83;;;18.80;99.90;;;;;;5066207;28;20263;-59
2023/09/11 02:35:39;;;;;;;12.77;11.77;;;18.90;99.90;;;;;;5067545;28;20254;-58
2023/09/11 02:38:07;;;;;;;13.27;11.90;;;18.90;99.90;;;;;;5070216;28;20204;-58
2023/09/11 02:40:36;;;;;;;13.30;12.10;;;18.90;99.90;;;;;;5070839;28;20212;-58
2023/09/11 02:43:04;;;;;;;11.60;10.80;;;18.90;99.90;;;;;;5067803;28;20738;-58
2023/09/11 02:45:31;;;;;;;12.10;11.00;;;18.90;99.90;;;;;;5068216;28;20660;-58
2023/09/11 02:47:58;;;;;;;10.90;10.10;;;18.80;99.90;;;;;;5068520;28;20263;-58
2023/09/11 02:50:25;;;;;;;12.83;11.63;;;18.80;99.90;;;;;;5069060;28;20197;-58
2023/09/11 02:52:51;;;;;;;12.83;11.70;;;18.80;99.90;;;;;;5059874;28;20282;-58
2023/09/11 02:55:20;;;;;;;13.50;12.30;;;18.80;99.90;;;;;;5067350;28;20286;-59
2023/09/11 02:57:47;;;;;;;11.97;11.07;;;18.80;99.90;;;;;;5070361;28;20197;-59
2023/09/11 03:00:14;;;;;;;12.17;11.17;;;18.80;99.90;;;;;;5071227;28;20208;-58
2023/09/11 03:02:41;;;;;;;12.43;11.27;;;18.80;99.90;;;;;;5067841;28;20217;-59
2023/09/11 03:05:09;;;;;;;12.83;11.57;;;18.70;99.90;;;;;;5069602;28;20700;-58
2023/09/11 03:07:35;;;;;;;12.80;11.63;;;18.70;99.90;;;;;;5067068;28;20587;-58
2023/09/11 03:10:04;;;;;;;12.17;11.27;;;18.70;99.90;;;;;;5070185;28;20209;-58
2023/09/11 03:12:32;;;;;;;12.00;11.03;;;18.70;99.90;;;;;;5070058;28;20260;-58
2023/09/11 03:15:03;;;;;;;13.77;12.47;;;18.70;99.90;;;;;;5070837;28;20692;-58
2023/09/11 03:17:30;;;;;;;11.70;10.73;;;18.60;99.90;;;;;;5067263;28;20207;-58
2023/09/11 03:19:57;;;;;;;11.90;11.00;;;18.60;99.90;;;;;;5070477;28;20280;-59
2023/09/11 03:22:25;;;;;;;12.53;11.57;;;18.60;99.90;;;;;;5070084;28;20221;-58
2023/09/11 03:24:51;;;;;;;12.00;11.17;;;18.60;99.90;;;;;;5069904;28;20288;-58
2023/09/11 03:27:18;;;;;;;11.77;10.87;;;18.60;99.90;;;;;;5067411;28;20201;-58
2023/09/11 03:29:47;;;;;;;11.30;10.40;;;18.60;99.90;;;;;;5068716;28;20273;-58
2023/09/11 03:32:14;;;;;;;11.53;10.63;;;18.60;99.90;;;;;;5067202;28;20277;-58
2023/09/11 03:34:41;;;;;;;11.43;10.63;;;18.60;99.90;;;;;;5070253;28;20228;-58
2023/09/11 03:37:08;;;;;;;13.17;11.97;;;18.50;99.90;;;;;;5067375;28;20687;-58
2023/09/11 03:39:35;;;;;;;11.87;10.97;;;18.50;99.90;;;;;;5067457;28;20262;-58
2023/09/11 03:42:02;;;;;;;13.23;12.20;;;18.50;99.90;;;;;;5067838;28;20589;-58
2023/09/11 03:44:29;;;;;;;12.67;11.57;;;18.50;99.90;;;;;;5063182;28;20205;-58
2023/09/11 03:46:57;;;;;;;12.50;11.60;;;18.50;99.90;;;;;;5063254;28;20251;-58
2023/09/11 03:49:24;;;;;;;11.67;10.77;;;18.50;99.90;;;;;;5069662;28;20209;-58
2023/09/11 03:51:51;;;;;;;12.07;10.97;;;18.50;99.90;;;;;;5069571;28;20625;-58
2023/09/11 03:54:20;;;;;;;11.80;10.90;;;18.50;99.90;;;;;;5059959;28;20274;-58
2023/09/11 03:56:47;;;;;;;11.90;11.07;;;18.50;99.90;;;;;;5060379;28;20209;-58
2023/09/11 03:59:17;;;;;;;13.03;11.83;;;18.50;99.90;;;;;;5061593;28;20209;-58
2023/09/11 04:01:44;;;;;;;12.53;11.63;;;18.50;99.90;;;;;;5067285;28;20201;-58
2023/09/11 04:04:16;;;;;;;12.47;11.47;;;18.50;99.90;;;;;;5067817;28;20270;-58
2023/09/11 04:06:43;;;;;;;12.20;11.37;;;18.40;99.90;;;;;;5070558;28;20201;-58
2023/09/11 04:09:10;;;;;;;11.47;10.50;;;18.30;99.90;;;;;;5068754;28;20201;-58
2023/09/11 04:11:37;;;;;;;11.93;10.93;;;18.30;99.90;;;;;;5069427;28;20223;-58
2023/09/11 04:14:04;;;;;;;13.17;11.87;;;18.20;99.90;;;;;;5069650;28;20221;-58
2023/09/11 04:16:31;;;;;;;12.93;11.83;;;18.20;99.90;;;;;;5067715;28;20223;-58
2023/09/11 04:18:58;;;;;;;12.53;11.37;;;18.20;99.90;;;;;;5069375;28;20205;-59
2023/09/11 04:21:26;;;;;;;13.20;11.83;;;18.20;99.90;;;;;;5069753;28;20201;-58
2023/09/11 04:23:53;;;;;;;12.23;11.33;;;18.20;99.90;;;;;;5067112;28;20282;-58
2023/09/11 04:26:20;;;;;;;13.60;12.23;;;18.20;99.90;;;;;;5062195;28;20652;-58
2023/09/11 04:28:47;;;;;;;12.47;11.57;;;18.10;99.90;;;;;;5069318;28;20704;-59
2023/09/11 04:31:14;;;;;;;12.30;11.37;;;18.10;99.90;;;;;;5069354;28;20680;-58
2023/09/11 04:33:41;;;;;;;11.73;10.83;;;18.10;99.90;;;;;;5069127;28;20270;-58
2023/09/11 04:36:09;;;;;;;12.63;11.73;;;18.10;99.90;;;;;;5067407;28;20255;-58
2023/09/11 04:38:37;;;;;;;11.37;10.47;;;18.00;99.90;;;;;;5069920;28;20201;-58
2023/09/11 04:41:04;;;;;;;14.67;13.37;;;18.10;99.90;;;;;;5061590;28;20575;-58
2023/09/11 04:43:31;;;;;;;13.20;12.20;;;18.10;99.90;;;;;;5068937;28;20297;-58
2023/09/11 04:45:58;;;;;;;14.67;13.20;;;18.00;99.90;;;;;;5067785;28;20201;-59
2023/09/11 04:48:25;;;;;;;13.40;12.20;;;18.00;99.90;;;;;;5069398;28;20278;-58
2023/09/11 04:50:52;;;;;;;14.67;13.23;;;18.00;99.90;;;;;;5069287;28;20197;-58
2023/09/11 04:53:19;;;;;;;13.77;12.67;;;18.00;99.90;;;;;;5065883;28;20223;-58
2023/09/11 04:55:48;;;;;;;12.77;11.77;;;18.00;99.90;;;;;;5068072;28;20221;-58
2023/09/11 04:58:15;;;;;;;14.87;13.50;;;18.10;99.90;;;;;;5069252;28;20615;-58
2023/09/11 05:00:42;;;;;;;12.20;11.30;;;18.10;99.90;;;;;;5069187;28;20208;-58
2023/09/11 05:03:09;;;;;;;14.33;13.07;;;18.10;99.90;;;;;;5067534;28;20768;-58
2023/09/11 05:05:40;;;;;;;16.67;15.07;;;18.10;99.90;;;;;;5068354;28;20197;-59
2023/09/11 05:08:08;;;;;;;16.53;14.67;;;18.20;99.90;;;;;;5069121;28;20284;-59
2023/09/11 05:10:36;;;;;;;15.80;14.37;;;18.30;99.90;;;;;;5066346;28;20653;-58
2023/09/11 05:13:04;;;;;;;14.40;13.13;;;18.40;99.90;;;;;;5068626;28;20274;-58
2023/09/11 05:15:31;;;;;;;15.63;14.30;;;18.30;99.90;;;;;;5072217;28;20217;-58
2023/09/11 05:17:58;;;;;;;14.17;12.87;;;18.30;99.90;;;;;;5072828;28;20201;-58
2023/09/11 05:20:25;;;;;;;14.77;13.60;;;18.20;99.90;;;;;;5069228;28;20599;-58
2023/09/11 05:22:52;;;;;;;15.00;13.67;;;18.30;99.90;;;;;;5063015;28;20587;-58
2023/09/11 05:25:21;;;;;;;16.97;15.47;;;18.30;99.90;;;;;;5067863;28;20197;-57
2023/09/11 05:27:48;;;;;;;16.37;14.40;;;18.40;99.90;;;;;;5063001;28;20635;-57
2023/09/11 05:30:17;;;;;;;14.70;13.30;;;18.40;99.90;;;;;;5073294;28;20266;-57
2023/09/11 05:32:47;;;;;;;15.20;13.73;;;18.50;99.90;;;;;;5070802;28;20692;-57
2023/09/11 05:35:15;;;;;;;13.87;12.67;;;18.50;99.90;;;;;;5068919;28;21184;-57
2023/09/11 05:37:43;;;;;;;14.80;13.33;;;18.50;99.90;;;;;;5071939;28;20232;-57
2023/09/11 05:40:10;;;;;;;14.77;13.43;;;18.60;99.90;;;;;;5071533;28;20726;-57
2023/09/11 05:42:37;;;;;;;15.73;14.27;;;18.60;99.90;;;;;;5071714;28;20220;-57
2023/09/11 05:45:06;;;;;;;14.03;12.83;;;18.70;99.90;;;;;;5071740;28;20252;-57
2023/09/11 05:47:34;;;;;;;15.13;13.73;;;18.80;99.90;;;;;;5072258;28;20229;-57
2023/09/11 05:50:01;;;;;;;14.43;13.13;;;18.90;99.90;;;;;;5072344;28;20231;-57
2023/09/11 05:52:28;;;;;;;12.67;11.70;;;19.60;99.90;;;;;;5071046;28;20527;-57
2023/09/11 05:54:56;;;;;;;14.50;13.00;;;20.50;99.90;;;;;;5064196;28;20333;-58
2023/09/11 05:57:23;;;;;;;12.20;11.30;;;21.60;99.90;;;;;;5072697;28;20227;-56
2023/09/11 05:59:50;;;;;;;13.60;12.00;;;22.60;99.90;;;;;;5071637;28;20258;-55
2023/09/11 06:02:17;;;;;;;12.83;11.73;;;23.40;99.90;;;;;;5063338;28;20282;-56
2023/09/11 06:04:45;;;;;;;13.10;11.80;;;24.20;99.90;;;;;;5068238;28;20238;-56
2023/09/11 06:07:12;;;;;;;15.60;12.53;;;24.40;99.90;;;;;;5072958;28;20251;-56
2023/09/11 06:09:39;;;;;;;11.80;10.67;;;25.00;99.90;;;;;;5073227;28;20350;-56
2023/09/11 06:12:07;;;;;;;12.70;11.57;;;25.70;99.90;;;;;;5071574;28;20217;-56
2023/09/11 06:14:37;;;;;;;12.57;10.73;;;26.30;99.90;;;;;;5069919;28;20274;-56
2023/09/11 06:17:05;;;;;;;12.50;11.50;;;26.40;99.90;;;;;;5072728;28;20237;-56
2023/09/11 06:19:32;;;;;;;11.67;10.57;;;26.80;99.90;;;;;;5069396;28;20205;-56
2023/09/11 06:22:00;;;;;;;12.10;11.07;;;27.20;99.90;;;;;;5071732;28;20220;-56
2023/09/11 06:24:27;;;;;;;11.75;10.90;;;27.20;99.90;;;;;;5071170;28;20466;-56
2023/09/11 06:27:04;;;;;;;12.43;11.30;;;27.40;99.90;;;;;;5069738;28;20618;-56
2023/09/11 06:29:31;;;;;;;11.60;10.85;;;27.90;99.90;;;;;;5072305;28;20235;-55
2023/09/11 06:31:58;;;;;;;11.20;10.40;;;27.80;99.90;;;;;;5071014;28;20664;-56
2023/09/11 06:34:27;;;;;;;10.30;9.50;;;27.90;99.90;;;;;;5071304;28;20725;-56
2023/09/11 06:36:54;;;;;;;11.55;10.38;;;28.10;99.90;;;;;;5068195;28;20691;-56
2023/09/11 06:39:23;;;;;;;10.25;9.55;;;28.40;99.90;;;;;;5071336;28;20247;-57
2023/09/11 06:41:50;;;;;;;11.23;10.35;;;28.40;99.90;;;;;;5070870;28;20209;-55
2023/09/11 06:44:20;;;;;;;10.05;9.43;;;28.40;99.90;;;;;;5071010;28;20213;-57
2023/09/11 06:46:47;;;;;;;10.63;9.77;;;28.70;99.90;;;;;;5071720;28;20634;-56
2023/09/11 06:49:17;;;;;;;12.45;11.27;;;28.50;99.90;;;;;;5071814;28;20627;-56
2023/09/11 06:51:44;;;;;;;11.93;11.13;;;27.60;99.90;;;;;;5070900;28;20250;-56
2023/09/11 06:54:12;;;;;;;10.95;10.10;;;27.20;99.90;;;;;;5071934;28;20198;-56
2023/09/11 06:56:42;;;;;;;11.48;10.45;;;27.00;99.90;;;;;;5071333;28;20643;-56
2023/09/11 06:59:09;;;;;;;11.60;10.88;;;26.30;99.90;;;;;;5071943;28;20251;-57
2023/09/11 07:01:39;;;;;;;11.70;10.80;;;26.20;99.90;;;;;;5071694;28;20678;-56
2023/09/11 07:04:07;;;;;;;10.60;9.85;;;26.00;99.90;;;;;;5071490;28;20209;-56
2023/09/11 07:06:34;;;;;;;11.65;10.70;;;26.20;99.90;;;;;;5071031;28;20204;-57
2023/09/11 07:09:04;;;;;;;11.43;10.35;;;27.00;99.90;;;;;;5071419;28;20200;-56
2023/09/11 07:11:31;;;;;;;11.73;10.80;;;27.50;99.90;;;;;;5069346;28;20446;-57
2023/09/11 07:13:59;;;;;;;12.00;11.00;;;27.90;99.90;;;;;;5070164;28;20216;-57
2023/09/11 07:16:26;;;;;;;10.73;9.80;;;28.60;99.90;;;;;;5127249;22;20271;-57
2023/09/11 07:18:53;;;;;;;10.52;9.68;;;29.00;99.90;;;;;;5060085;28;20202;-56
2023/09/11 07:21:20;;;;;;;11.13;10.23;;;29.60;99.90;;;;;;5050192;28;20612;-57
2023/09/11 07:23:48;;;;;;;10.38;9.57;;;30.50;99.90;;;;;;5051712;28;20206;-56
2023/09/11 07:26:14;;;;;;;11.90;10.75;;;30.90;99.90;;;;;;5050793;28;20202;-56
2023/09/11 07:28:54;;;;;;;10.68;9.88;;;31.00;99.90;;;;;;5055988;28;20626;-56
2023/09/11 07:31:23;;;;;;;14.02;12.73;;;31.30;99.90;;;;;;5055559;28;20206;-57
2023/09/11 07:33:51;;;;;;;13.40;12.32;;;31.50;99.90;;;;;;5059780;28;20730;-56
2023/09/11 07:36:19;;;;;;;13.88;12.48;;;30.90;99.90;;;;;;5049735;28;20405;-56
2023/09/11 07:38:46;;;;;;;14.88;13.38;;;30.90;99.90;;;;;;5058301;28;20239;-56
2023/09/11 07:41:15;;;;;;;13.00;11.93;;;30.80;99.90;;;;;;5057852;28;20201;-57
2023/09/11 07:43:44;;;;;;;13.18;11.98;;;31.20;99.90;;;;;;5063002;28;20210;-57
2023/09/11 07:46:11;;;;;;;14.82;13.25;;;31.50;99.90;;;;;;5070983;28;20201;-57
2023/09/11 07:48:39;;;;;;;15.45;13.80;;;31.70;99.90;;;;;;5059035;28;20209;-57
2023/09/11 07:51:06;;;;;;;13.88;12.68;;;32.40;99.90;;;;;;5041338;28;20280;-57
2023/09/11 07:53:33;;;;;;;13.88;12.60;;;32.50;99.90;;;;;;5031465;28;20585;-57
2023/09/11 07:56:00;;;;;;;13.88;12.55;;;32.60;99.90;;;;;;5030886;28;20295;-57
2023/09/11 07:58:27;;;;;;;12.75;11.60;;;32.70;99.90;;;;;;5056571;28;20770;-57
2023/09/11 08:00:54;;;;;;;15.15;13.57;;;32.80;99.90;;;;;;5063798;28;20201;-57
2023/09/11 08:03:21;;;;;;;13.48;11.32;;;32.50;99.90;;;;;;5055026;28;20260;-57
2023/09/11 08:05:49;;;;;;;13.48;12.20;;;32.70;99.90;;;;;;5060344;28;20193;-57
2023/09/11 08:08:16;;;;;;;12.93;11.73;;;32.80;99.90;;;;;;5062147;28;20704;-57
2023/09/11 08:10:43;;;;;;;13.55;12.40;;;33.20;99.90;;;;;;5056404;28;20275;-57
2023/09/11 08:13:10;;;;;;;11.85;10.85;;;33.10;99.90;;;;;;5049197;28;20598;-56
2023/09/11 08:15:37;;;;;;;12.30;11.18;;;33.30;99.90;;;;;;5049874;28;20222;-63
2023/09/11 08:18:04;;;;;;;11.73;10.80;;;33.00;99.90;;;;;;5048860;28;20283;-67
2023/09/11 08:20:31;;;;;;;11.40;10.55;;;32.80;99.90;;;;;;5049416;28;20201;-63
2023/09/11 08:22:59;;;;;;;10.90;10.10;;;32.90;99.90;;;;;;5049609;28;20197;-60
2023/09/11 08:25:26;;;;;;;11.05;10.02;;;32.60;99.90;;;;;;5049919;28;20255;-60
2023/09/11 08:27:53;;;;;;;11.35;10.38;;;32.70;99.90;;;;;;5049812;28;20229;-62
2023/09/11 08:30:20;;;;;;;9.73;9.10;;;33.00;99.90;;;;;;5049220;28;20201;-61
2023/09/11 08:32:47;;;;;;;11.32;10.73;;;33.40;99.90;;;;;;5050209;28;20742;-62
2023/09/11 08:35:14;;;;;;;10.77;10.13;;;33.00;99.90;;;;;;5046072;28;20708;-62
2023/09/11 08:37:42;;;;;;;10.98;10.15;;;33.00;99.90;;;;;;5049277;28;20214;-62
2023/09/11 08:40:10;;;;;;;10.57;9.77;;;33.30;99.90;;;;;;5048234;28;20204;-63
2023/09/11 08:42:38;;;;;;;11.32;10.48;;;33.20;99.90;;;;;;5049713;28;20197;-62
2023/09/11 08:45:06;;;;;;;11.27;10.43;;;33.40;99.90;;;;;;5049286;28;20225;-63
2023/09/11 08:47:34;;;;;;;11.52;10.73;;;33.40;99.90;;;;;;5052375;28;20297;-63
2023/09/11 08:50:06;;;;;;;10.68;9.85;;;33.20;99.90;;;;;;5052902;28;20193;-60
2023/09/11 08:52:35;;;;;;;11.32;10.38;;;33.70;99.90;;;;;;5052391;28;20267;-60
2023/09/11 08:55:10;;;;;;;10.60;9.93;;;33.90;99.90;;;;;;5053976;28;20739;-60
2023/09/11 08:57:41;;;;;;;11.10;10.30;;;33.70;99.90;;;;;;5054740;28;20735;-60
2023/09/11 09:00:12;;;;;;;11.27;10.30;;;33.70;99.90;;;;;;5053744;28;20214;-63
2023/09/11 09:02:39;;;;;;;11.45;10.38;;;34.00;99.90;;;;;;5052885;28;20289;-56
2023/09/11 09:05:07;;;;;;;10.25;9.57;;;33.70;99.90;;;;;;5053571;28;20255;-56
2023/09/11 09:07:35;;;;;;;10.93;10.13;;;33.90;99.90;;;;;;5051392;28;20217;-56
2023/09/11 09:10:04;;;;;;;10.05;9.45;;;34.00;99.90;;;;;;5054648;28;20205;-56
2023/09/11 09:12:33;;;;;;;9.90;9.32;;;34.10;99.90;;;;;;5053516;28;20738;-56
2023/09/11 09:15:00;;;;;;;11.70;10.70;;;34.30;99.90;;;;;;5049966;28;20718;-56
2023/09/11 09:17:27;;;;;;;11.30;10.18;;;34.50;99.90;;;;;;5053241;28;20313;-56
2023/09/11 09:19:54;;;;;;;11.68;10.70;;;34.40;99.90;;;;;;5053642;28;20203;-56
2023/09/11 09:22:21;;;;;;;11.32;10.73;;;34.40;99.90;;;;;;5049969;28;20376;-55
2023/09/11 09:24:51;;;;;;;10.88;9.98;;;34.20;99.90;;;;;;5047194;28;20211;-55
2023/09/11 09:27:18;;;;;;;10.32;9.63;;;34.10;99.90;;;;;;5053110;28;20226;-55
2023/09/11 09:29:48;;;;;;;10.73;10.02;;;34.70;99.90;;;;;;5052987;28;20202;-56
2023/09/11 09:32:15;;;;;;;9.00;8.48;;;34.90;99.50;;;;;;5052315;28;20209;-55
2023/09/11 09:34:48;;;;;;;11.65;10.60;;;35.40;98.30;;;;;;5052500;28;20681;-56
2023/09/11 09:37:17;;;;;;;11.00;10.15;;;35.80;98.10;;;;;;5053047;28;20664;-56
2023/09/11 09:39:45;;;;;;;12.27;11.48;;;35.80;98.20;;;;;;5054672;28;20263;-56
2023/09/11 09:42:12;;;;;;;11.23;10.32;;;35.70;98.20;;;;;;5051306;28;20665;-56
2023/09/11 09:44:41;;;;;;;11.13;10.45;;;35.90;98.50;;;;;;5052126;28;20727;-57
2023/09/11 09:47:10;;;;;;;11.05;10.15;;;35.80;98.00;;;;;;5052158;28;20210;-56
2023/09/11 09:49:46;;;;;;;10.75;9.75;;;35.60;98.20;;;;;;5052644;28;20289;-56
2023/09/11 09:52:14;;;;;;;10.20;9.60;;;36.10;96.30;;;;;;5052027;28;20209;-56
2023/09/11 09:54:43;;;;;;;10.52;9.85;;;36.20;96.80;;;;;;5053932;28;20229;-56
2023/09/11 09:57:12;;;;;;;10.82;9.85;;;35.90;95.40;;;;;;5052566;28;20275;-57
2023/09/11 09:59:40;;;;;;;14.30;13.30;;;35.90;95.80;;;;;;5049734;28;20217;-56
2023/09/11 10:02:12;;;;;;;15.73;14.43;;;35.60;99.70;;;;;;5063391;28;20262;-56
2023/09/11 10:04:39;;;;;;;18.98;12.85;;;34.40;99.90;;;;;;5047787;28;20293;-56
2023/09/11 10:07:06;;;;;;;14.15;12.98;;;34.40;99.90;;;;;;5058630;28;20276;-56
2023/09/11 10:09:34;;;;;;;15.52;14.30;;;34.50;99.90;;;;;;5050981;28;20198;-56
2023/09/11 10:12:09;;;;;;;14.38;13.38;;;33.70;99.90;;;;;;5052654;28;20776;-56
2023/09/11 10:14:36;;;;;;;14.82;13.70;;;33.60;99.90;;;;;;5049571;28;20206;-56
2023/09/11 10:17:06;;;;;;;13.82;12.70;;;33.70;99.90;;;;;;5051015;28;20221;-56
2023/09/11 10:19:35;;;;;;;15.38;14.27;;;33.90;99.90;;;;;;5051291;28;20205;-56
2023/09/11 10:22:05;;;;;;;15.88;14.73;;;33.00;99.90;;;;;;5051593;28;20198;-56
2023/09/11 10:24:32;;;;;;;14.10;13.02;;;32.80;99.90;;;;;;5047395;28;20285;-56
2023/09/11 10:27:01;;;;;;;14.48;13.57;;;32.80;99.90;;;;;;5050527;28;20218;-56
2023/09/11 10:29:43;;;;;;;15.52;14.50;;;33.20;99.90;;;;;;5051904;28;20210;-56
2023/09/11 10:32:16;;;;;;;15.45;13.95;;;33.40;99.90;;;;;;5049325;28;20209;-56
2023/09/11 10:34:46;;;;;;;15.50;14.18;;;33.20;99.90;;;;;;5048080;28;20283;-56
2023/09/11 10:37:13;;;;;;;15.15;14.00;;;33.20;99.90;;;;;;5058722;28;20313;-56
2023/09/11 10:39:40;;;;;;;15.27;14.23;;;32.50;99.90;;;;;;5049490;28;20637;-56
2023/09/11 10:42:08;;;;;;;13.70;12.73;;;32.50;99.90;;;;;;5048887;28;20771;-56
2023/09/11 10:44:37;;;;;;;16.33;15.23;;;32.80;99.90;;;;;;5049552;28;20201;-56
2023/09/11 10:47:05;;;;;;;15.70;14.35;;;32.80;99.90;;;;;;5054608;28;20304;-56
2023/09/11 10:49:38;;;;;;;15.27;14.18;;;32.70;99.90;;;;;;5048468;28;20728;-61
2023/09/11 10:52:08;;;;;;;16.95;15.80;;;31.80;99.90;;;;;;5049751;28;20206;-61
2023/09/11 10:54:36;;;;;;;18.20;16.65;;;31.70;99.90;;;;;;5054572;28;20625;-55
2023/09/11 10:57:03;;;;;;;14.95;13.52;;;31.60;99.90;;;;;;5051327;28;20222;-63
2023/09/11 10:59:31;;;;;;;15.57;14.50;;;31.40;99.90;;;;;;5050155;28;20267;-62
2023/09/11 11:01:58;;;;;;;16.38;14.30;;;31.10;99.90;;;;;;5051383;28;20757;-58
2023/09/11 11:04:25;;;;;;;14.77;13.70;;;31.10;99.90;;;;;;5057867;28;20300;-58
2023/09/11 11:06:55;;;;;;;16.33;15.05;;;31.00;99.90;;;;;;5063130;28;20639;-60
2023/09/11 11:09:30;;;;;;;15.75;14.75;;;30.80;99.90;;;;;;5060053;28;20288;-61
2023/09/11 11:11:58;;;;;;;14.98;13.27;;;30.70;99.90;;;;;;5046144;28;20194;-62
2023/09/11 11:14:25;;;;;;;13.60;12.43;;;30.50;99.90;;;;;;5050549;28;20198;-60
2023/09/11 11:16:59;;;;;;;13.10;12.20;;;30.60;99.90;;;;;;5050085;28;20226;-63
2023/09/11 11:19:30;;;;;;;12.77;11.73;;;30.50;99.90;;;;;;5051203;28;20251;-63
2023/09/11 11:21:58;;;;;;;12.38;11.23;;;30.30;99.90;;;;;;5050899;28;20692;-63
2023/09/11 11:24:26;;;;;;;11.05;10.40;;;30.10;99.90;;;;;;5046273;28;20206;-64
2023/09/11 11:26:57;;;;;;;10.13;9.43;;;29.50;99.90;;;;;;5050344;28;20758;-60
2023/09/11 11:29:24;;;;;;;11.15;10.45;;;29.00;99.90;;;;;;5051497;28;20255;-61
2023/09/11 11:31:54;;;;;;;12.07;11.15;;;28.80;99.90;;;;;;5050322;28;20736;-58
2023/09/11 11:34:27;;;;;;;11.05;9.88;;;28.90;99.90;;;;;;5046215;28;20286;-57
2023/09/11 11:36:57;;;;;;;9.43;8.82;;;29.10;99.90;;;;;;5050812;28;20575;-58
2023/09/11 11:39:27;;;;;;;10.88;9.95;;;29.20;99.90;;;;;;5051592;28;20316;-58
2023/09/11 11:41:55;;;;;;;11.07;10.07;;;29.20;99.90;;;;;;5043616;28;20281;-57
2023/09/11 11:44:22;;;;;;;10.65;9.95;;;29.30;99.90;;;;;;5045829;28;20614;-57
2023/09/11 11:46:51;;;;;;;10.35;9.40;;;29.20;99.90;;;;;;5058409;28;20312;-58
2023/09/11 11:49:20;;;;;;;10.30;9.63;;;29.20;99.90;;;;;;5053339;28;20197;-59
2023/09/11 11:51:47;;;;;;;10.88;10.13;;;29.20;99.90;;;;;;5064568;28;20718;-59
2023/09/11 11:54:25;;;;;;;10.35;9.65;;;29.30;99.90;;;;;;5057080;28;20358;-60
2023/09/11 11:56:57;;;;;;;9.93;9.32;;;29.30;99.90;;;;;;5057793;28;20639;-57
2023/09/11 11:59:30;;;;;;;9.82;9.23;;;29.20;99.90;;;;;;5047940;28;20203;-57
2023/09/11 12:01:57;;;;;;;10.20;9.50;;;29.20;99.90;;;;;;5051793;28;20287;-58
2023/09/11 12:04:25;;;;;;;10.20;9.50;;;29.20;99.90;;;;;;5060012;28;20197;-58
2023/09/11 12:06:53;;;;;;;9.05;8.35;;;28.90;99.90;;;;;;5069483;28;20300;-58
2023/09/11 12:09:21;;;;;;;10.32;9.73;;;28.70;99.90;;;;;;5054974;28;20280;-57
2023/09/11 12:11:50;;;;;;;10.40;9.75;;;28.80;99.90;;;;;;5052725;28;20206;-58
2023/09/11 12:14:21;;;;;;;10.63;9.95;;;28.80;99.90;;;;;;5058309;28;20281;-59
2023/09/11 12:16:48;;;;;;;10.35;9.65;;;28.90;99.90;;;;;;5056915;28;20251;-59
2023/09/11 12:19:23;;;;;;;9.85;9.25;;;28.90;99.90;;;;;;5049728;28;20197;-60
2023/09/11 12:21:50;;;;;;;10.55;9.73;;;28.90;99.90;;;;;;5057114;28;20298;-60
2023/09/11 12:24:17;;;;;;;10.68;9.80;;;28.90;99.90;;;;;;5050165;28;20205;-59
2023/09/11 12:26:44;;;;;;;10.00;9.32;;;28.60;99.90;;;;;;5049136;28;20217;-54
2023/09/11 12:29:11;;;;;;;10.90;10.10;;;28.50;99.90;;;;;;5050572;28;20256;-64
2023/09/11 12:31:40;;;;;;;10.23;9.52;;;28.20;99.90;;;;;;5045339;28;20252;-64
2023/09/11 12:34:07;;;;;;;9.23;8.68;;;28.00;99.90;;;;;;5050846;28;20202;-51
2023/09/11 12:36:33;;;;;;;10.48;9.55;;;28.00;99.90;;;;;;5049788;28;20225;-52